Lazy 5 Park, Sparks, Nevada Weather observations

Data are for 10 minute period ending at time listed.
 Day   Time   Solar   Ave.   Ave.  Ave.  Vector  Max.   Baro.   Total    
  of    of     Rad.   Air    Rel.  Wind   Wind   Wind  Press.  Precip.   
Year   Day            Temp.  Hum.  Speed  Dir.   Gust                    
2026   (PST)  Kw/m2    F      %     mph   deg.    mph    mb.     in.     
-------------------------------------------------------------------------
 125   13:40   0.75   68.9    29    5.8   185    11.0   99999.0    0.00 
 125   13:50   0.74   69.4    28    5.5   183    10.3   99999.0    0.00 
 125   14:00   0.72   69.3    29    6.4   190    11.0   99999.0    0.00 
 125   14:10   0.70   69.2    29    5.2   165     9.9   99999.0    0.00 
 125   14:20   0.70   69.7    27    4.6   161    11.0   99999.0    0.00 
 125   14:30   0.67   71.0    24    5.3   156    11.4   99999.0    0.00 
 125   14:40   0.63   71.2    23    7.2   180    14.6   99999.0    0.00 
 125   14:50   0.46   70.1    25    6.5   141    13.1   99999.0    0.00 
 125   15:00   0.55   71.1    23    5.6   158    12.4   99999.0    0.00 
 125   15:10   0.39   71.3    24    4.3   131    11.0   99999.0    0.00 
 125   15:20   0.45   70.6    24    6.1   172     9.9   99999.0    0.00 
 125   15:30   0.23   71.1    24    5.5   156    11.0   99999.0    0.00 
 125   15:40   0.44   70.9    24    4.9    93     9.6   99999.0    0.00 
 125   15:50   0.50   71.4    23    5.4   174     9.2   99999.0    0.00 
 125   16:00   0.49   71.9    22    5.3   132    12.4   99999.0    0.00 
 125   16:10   0.44   71.5    22    5.0    92     8.9   99999.0    0.00 
 125   16:20   0.42   71.6    22    6.3   175    12.4   99999.0    0.00 
 125   16:30   0.39   72.0    22    5.0   165    12.1   99999.0    0.00 
 125   16:40   0.36   72.2    22    6.2   162     9.9   99999.0    0.00 
 125   16:50   0.33   72.0    23    4.2   146    10.3   99999.0    0.00 
 125   17:00   0.29   72.0    23    3.9   100     7.1   99999.0    0.00 
 125   17:10   0.22   71.3    23    4.4    86     8.9   99999.0    0.00 
 125   17:20   0.19   70.5    24    4.3    84     7.8   99999.0    0.00 
 125   17:30   0.21   71.1    24    3.4    98     6.3   99999.0    0.00 
 125   17:40   0.19   71.1    24    3.8    66     7.4   99999.0    0.00 
 125   17:50   0.15   71.1    24    2.8    96     5.6   99999.0    0.00 
 125   18:00   0.04   69.6    27    4.8    59    11.0   99999.0    0.00 
 125   18:10   0.07   69.5    27    3.9    64     7.4   99999.0    0.00 
 125   18:20   0.06   70.1    27    1.9    77     4.6   99999.0    0.00 
 125   18:30   0.03   69.7    27    2.6    57     4.9   99999.0    0.00 
 125   18:40   0.02   68.5    32    4.8    49     8.9   99999.0    0.00 
 125   18:50   0.01   67.3    34    5.2    51     8.1   99999.0    0.00 
 125   19:00   0.01   66.6    38    5.3    48     9.2   99999.0    0.00 
 125   19:10   0.00   65.8    40    5.6    46    10.6   99999.0    0.00 
 125   19:20   0.00   65.3    42    6.1    41     9.2   99999.0    0.00 
 125   19:30   0.00   64.8    44    5.9    42    10.3   99999.0    0.00 
 125   19:40   0.00   64.5    44    5.5    45     9.6   99999.0    0.00 
 125   19:50   0.00   64.5    45    4.2    73     8.5   99999.0    0.00 
 125   20:00   0.00   64.0    46    3.9   187     8.1   99999.0    0.00 
 125   20:10   0.00   64.4    42    4.0   135     8.5   99999.0    0.00 
 125   20:20   0.00   64.7    40    2.1    72     4.6   99999.0    0.00 
 125   20:30   0.00   64.0    42    1.9   342     4.2   99999.0    0.00 
 125   20:40   0.00   62.2    45    2.5   234     4.6   99999.0    0.00 
 125   20:50   0.00   63.0    39    1.7   115     4.2   99999.0    0.00 
 125   21:00   0.00   63.1    39    1.7   157     3.5   99999.0    0.00 
 125   21:10   0.00   62.6    40    1.0   134     2.8   99999.0    0.00 
 125   21:20   0.00   62.3    41    0.3    75     2.1   99999.0    0.00 
 125   21:30   0.00   61.1    44    0.2    67     1.7   99999.0    0.00 
 125   21:40   0.00   60.1    47    2.1   118     3.5   99999.0    0.00 
 125   21:50   0.00   59.2    49    0.0   165     1.0   99999.0    0.00 
 125   22:00   0.00   57.0    56    1.5    43     3.1   99999.0    0.00 
 125   22:10   0.00   56.2    55    1.7    73     3.1   99999.0    0.00 
 125   22:20   0.00   57.3    53    2.8   114     3.8   99999.0    0.00 
 125   22:30   0.00   56.2    57    3.2   115     5.3   99999.0    0.00 
 125   22:40   0.00   55.2    61    1.2   141     2.8   99999.0    0.00 
 125   22:50   0.00   54.6    62    1.6    76     3.1   99999.0    0.00 
 125   23:00   0.00   54.6    62    1.4    58     3.5   99999.0    0.00 
 125   23:10   0.00   51.7    69    0.9   348     3.5   99999.0    0.00 
 125   23:20   0.00   52.8    66    3.5    32     4.6   99999.0    0.00 
 125   23:30   0.00   54.3    61    2.8    35     3.8   99999.0    0.00 
 125   23:40   0.00   54.5    59    2.8    33     3.8   99999.0    0.00 
 125   23:50   0.00   54.8    57    1.7    35     3.1   99999.0    0.00 
 126    0:00   0.00   54.6    58    2.8    70     4.6   99999.0    0.00 
 126    0:10   0.00   54.5    61    3.4    33     4.9   99999.0    0.00 
 126    0:20   0.00   53.2    66    3.2     9     5.3   99999.0    0.00 
 126    0:30   0.00   52.3    69    3.5     8     4.9   99999.0    0.00 
 126    0:40   0.00   53.3    63    2.1    57     4.2   99999.0    0.00 
 126    0:50   0.00   52.8    64    1.9   141     3.1   99999.0    0.00 
 126    1:00   0.00   52.0    65    1.5   142     3.5   99999.0    0.00 
 126    1:10   0.00   51.1    68    0.1    85     1.3   99999.0    0.00 
 126    1:20   0.00   50.5    70    1.7   128     3.5   99999.0    0.00 
 126    1:30   0.00   49.5    72    1.8   135     4.9   99999.0    0.00 
 126    1:40   0.00   48.1    76    1.1    63     3.5   99999.0    0.00 
 126    1:50   0.00   48.9    74    1.8   131     3.8   99999.0    0.00 
 126    2:00   0.00   49.0    72    1.0   156     2.8   99999.0    0.00 
 126    2:10   0.00   47.1    80    0.0   340     0.0   99999.0    0.00 
 126    2:20   0.00   46.7    81    0.6   127     2.8   99999.0    0.00 
 126    2:30   0.00   47.2    78    1.9   155     3.5   99999.0    0.00 
 126    2:40   0.00   47.4    78    2.4   160     3.8   99999.0    0.00 
 126    2:50   0.00   47.7    77    1.9   115     3.1   99999.0    0.00 
 126    3:00   0.00   47.3    79    0.1    96     2.1   99999.0    0.00 
 126    3:10   0.00   46.3    83    0.0    38     1.7   99999.0    0.00 
 126    3:20   0.00   46.8    80    2.1   134     2.8   99999.0    0.00 
 126    3:30   0.00   47.7    77    2.1   119     3.5   99999.0    0.00 
 126    3:40   0.00   47.3    78    1.6   140     3.1   99999.0    0.00 
 126    3:50   0.00   46.4    80    0.0   127     1.0   99999.0    0.00 
 126    4:00   0.00   45.9    81    0.1   138     2.1   99999.0    0.00 
 126    4:10   0.00   46.0    81    1.2   148     2.4   99999.0    0.00 
 126    4:20   0.00   46.2    80    1.1   121     2.8   99999.0    0.00 
 126    4:30   0.00   46.2    80    1.5   109     2.8   99999.0    0.00 
 126    4:40   0.00   45.1    81    0.0   135     1.0   99999.0    0.00 
 126    4:50   0.00   43.8    85    0.3    15     2.1   99999.0    0.00 
 126    5:00   0.00   42.9    88    1.1   224     3.1   99999.0    0.00 
 126    5:10   0.01   43.6    89    0.1   214     1.3   99999.0    0.00 
 126    5:20   0.01   44.1    87    0.0   213     0.0   99999.0    0.00 
 126    5:30   0.02   43.7    87    0.0   213     0.0   99999.0    0.00 
 126    5:40   0.05   44.3    88    0.0   211     1.3   99999.0    0.00 
 126    5:50   0.07   46.3    83    0.8   130     2.8   99999.0    0.00 
 126    6:00   0.09   47.7    79    0.1   150     1.7   99999.0    0.00 
 126    6:10   0.11   49.1    76    0.0   117     1.0   99999.0    0.00 
 126    6:20   0.13   51.1    72    0.0   133     0.0   99999.0    0.00 
 126    6:30   0.16   52.6    71    1.3   198     3.1   99999.0    0.00 
 126    6:40   0.18   53.2    70    0.9   278     3.1   99999.0    0.00 
 126    6:50   0.21   53.4    70    0.6   339     3.1   99999.0    0.00 
 126    7:00   0.24   55.0    66    2.4   306     4.6   99999.0    0.00 
 126    7:10   0.27   55.9    62    2.6   318     4.2   99999.0    0.00 
 126    7:20   0.29   57.2    60    1.6   316     3.5   99999.0    0.00 
 126    7:30   0.32   58.8    56    1.9   235     4.2   99999.0    0.00 
 126    7:40   0.35   60.2    52    0.7    22     3.8   99999.0    0.00 
 126    7:50   0.37   61.4    50    2.3   213     4.2   99999.0    0.00 
 126    8:00   0.40   62.0    48    3.3   205     5.3   99999.0    0.00 
 126    8:10   0.43   62.4    46    3.3   201     5.3   99999.0    0.00 
 126    8:20   0.45   62.6    44    3.6   185     6.0   99999.0    0.00 
 126    8:30   0.48   62.9    43    4.0   210     6.7   99999.0    0.00 
 126    8:40   0.50   63.6    41    4.5   187     7.1   99999.0    0.00 
 126    8:50   0.52   64.1    39    2.4   280     6.3   99999.0    0.00 
 126    9:00   0.54   65.0    38    3.9   249     7.1   99999.0    0.00 
 126    9:10   0.57   66.2    36    3.2   245     5.3   99999.0    0.00 
 126    9:20   0.59   66.4    32    3.3   161     6.0   99999.0    0.00 
 126    9:30   0.61   66.3    33    3.7   157     7.8   99999.0    0.00 
 126    9:40   0.63   67.0    31    5.6   214     9.6   99999.0    0.00 
 126    9:50   0.65   67.7    30    4.0   109    10.3   99999.0    0.00 
 126   10:00   0.67   68.4    29    3.7   193     7.1   99999.0    0.00 
 126   10:10   0.69   69.4    28    4.4   202     8.9   99999.0    0.00 
 126   10:20   0.70   69.4    28    4.6   206     7.4   99999.0    0.00 
 126   10:30   0.72   70.5    27    3.6   141     7.4   99999.0    0.00 
 126   10:40   0.73   70.5    26    3.3   232     6.7   99999.0    0.00 
 126   10:50   0.74   71.0    26    3.7   218     7.1   99999.0    0.00 
 126   11:00   0.75   71.7    24    5.4   196     9.2   99999.0    0.00 
 126   11:10   0.76   72.0    23    6.0   171    12.4   99999.0    0.00 
 126   11:20   0.77   72.5    23    4.0   183     8.9   99999.0    0.00 
 126   11:30   0.78   72.5    22    4.4   232     9.9   99999.0    0.00 
 126   11:40   0.79   73.0    21    4.8   153    10.3   99999.0    0.00 
 126   11:50   0.80   73.1    19    5.4   183    11.0   99999.0    0.00 
 126   12:00   0.80   73.4    19    3.4   147     9.9   99999.0    0.00 
 126   12:10   0.80   73.6    19    5.0   110    11.0   99999.0    0.00 
 126   12:20   0.80   74.4    15    6.5   179    11.4   99999.0    0.00 
 126   12:30   0.80   75.2    14    4.8   147     9.9   99999.0    0.00 
 126   12:40   0.79   75.1    15    6.2   191    11.7   99999.0    0.00 
 126   12:50   0.78   75.2    16    5.8   189    13.1   99999.0    0.00 
 126   13:00   0.78   74.0    18    4.7   346     8.9   99999.0    0.00 
 126   13:10   0.77   74.7    18    2.9    55     8.5   99999.0    0.00 
 126   13:20   0.76   76.2    16    5.5   199    11.4   99999.0    0.00 
 126   13:30   0.75   76.8    16    4.7   169    10.3   99999.0    0.00 

Return to Lazy 5 Park graphs page.


Western Regional Climate Center,wrcc@dri.edu